Pagina principale
METAR-TAF:

METAR-TAF

Aeroporti :

Emmen, Svizzera

latitudine: 47-05-32N, longitudine: 8-18-16E, altezza: 426 m

Osservazione

Il bollettino è stato emesso 22 minuti fa, alle 15:50 UTC
Vento 2 kt da sud
Temperature 13°C
Umidità 72%
Pressione 1027 hPa
Visibilità 10 km o più
Poco nuvoloso ad un'altezza di 10000 ft
Nubi sparse ad un'altezza di 13000 ft

METAR: LSME 231550Z 18002KT 9999 FEW100 SCT130 13/08 Q1027 RMK BLU+

Ora: 18:12 (16:12 UTC)


TAF: mancante

Osservazioni e previsioni meteorologiche di più di 4000 aeroporti (messaggi METAR e TAF).

Le stazioni disponibili sono rappresentate dai dischi gialli e rossi sulla carta.

Puntare il mouse per vedere il nome della stazione.

Clicca sopra per visualizzare le osservazioni e previsioni meteorologiche.

Per cambiare la mappa : fare clic sui pulsanti verdi con una croce nera per ingrandire, il pulsante verde con un trattino per diminuire, o sulla freccia verde per le mappe adiacenti.


METAR-TAF: